sensor_id;sensor_type;location;lat;lon;timestamp;temperature;humidity
9057;DHT22;4563;54.756;9.400;2023-06-22T00:00:54;20.80;61.90
9057;DHT22;4563;54.756;9.400;2023-06-22T00:03:22;20.80;61.90
9057;DHT22;4563;54.756;9.400;2023-06-22T00:05:51;20.80;62.00
9057;DHT22;4563;54.756;9.400;2023-06-22T00:08:19;20.70;62.00
9057;DHT22;4563;54.756;9.400;2023-06-22T00:10:46;20.70;62.00
9057;DHT22;4563;54.756;9.400;2023-06-22T00:13:14;20.70;62.10
9057;DHT22;4563;54.756;9.400;2023-06-22T00:15:44;20.70;62.20
9057;DHT22;4563;54.756;9.400;2023-06-22T00:18:11;20.70;62.30
9057;DHT22;4563;54.756;9.400;2023-06-22T00:20:39;20.60;62.30
9057;DHT22;4563;54.756;9.400;2023-06-22T00:23:06;20.60;62.40
9057;DHT22;4563;54.756;9.400;2023-06-22T00:25:34;20.60;62.50
9057;DHT22;4563;54.756;9.400;2023-06-22T00:28:01;20.60;62.50
9057;DHT22;4563;54.756;9.400;2023-06-22T00:30:30;20.60;62.60
9057;DHT22;4563;54.756;9.400;2023-06-22T00:32:58;20.50;62.40
9057;DHT22;4563;54.756;9.400;2023-06-22T00:35:25;20.50;62.50
9057;DHT22;4563;54.756;9.400;2023-06-22T00:37:54;20.50;62.60
9057;DHT22;4563;54.756;9.400;2023-06-22T00:40:26;20.50;62.60
9057;DHT22;4563;54.756;9.400;2023-06-22T00:42:54;20.50;62.60
9057;DHT22;4563;54.756;9.400;2023-06-22T00:45:21;20.40;62.50
9057;DHT22;4563;54.756;9.400;2023-06-22T00:47:50;20.40;62.50
9057;DHT22;4563;54.756;9.400;2023-06-22T00:50:20;20.40;62.60
9057;DHT22;4563;54.756;9.400;2023-06-22T00:52:50;20.40;62.60
9057;DHT22;4563;54.756;9.400;2023-06-22T00:55:18;20.30;62.60
9057;DHT22;4563;54.756;9.400;2023-06-22T00:57:47;20.30;62.60
9057;DHT22;4563;54.756;9.400;2023-06-22T01:00:17;20.30;62.70
9057;DHT22;4563;54.756;9.400;2023-06-22T01:02:46;20.30;62.80
9057;DHT22;4563;54.756;9.400;2023-06-22T01:05:19;20.20;62.80
9057;DHT22;4563;54.756;9.400;2023-06-22T01:07:56;20.20;62.70
9057;DHT22;4563;54.756;9.400;2023-06-22T01:10:31;20.20;62.60
9057;DHT22;4563;54.756;9.400;2023-06-22T01:13:04;20.20;62.70
9057;DHT22;4563;54.756;9.400;2023-06-22T01:15:36;20.10;62.70
9057;DHT22;4563;54.756;9.400;2023-06-22T01:18:04;20.10;62.70
9057;DHT22;4563;54.756;9.400;2023-06-22T01:20:34;20.10;62.70
9057;DHT22;4563;54.756;9.400;2023-06-22T01:23:10;20.10;62.80
9057;DHT22;4563;54.756;9.400;2023-06-22T01:25:45;20.10;62.70
9057;DHT22;4563;54.756;9.400;2023-06-22T01:28:24;20.00;62.80
9057;DHT22;4563;54.756;9.400;2023-06-22T01:30:54;20.00;62.90
9057;DHT22;4563;54.756;9.400;2023-06-22T01:33:29;20.00;63.00
9057;DHT22;4563;54.756;9.400;2023-06-22T01:35:57;20.00;63.00
9057;DHT22;4563;54.756;9.400;2023-06-22T01:38:25;20.00;63.10
9057;DHT22;4563;54.756;9.400;2023-06-22T01:40:52;19.90;63.10
9057;DHT22;4563;54.756;9.400;2023-06-22T01:43:21;19.90;63.00
9057;DHT22;4563;54.756;9.400;2023-06-22T01:45:48;19.90;63.10
9057;DHT22;4563;54.756;9.400;2023-06-22T01:48:17;19.90;63.10
9057;DHT22;4563;54.756;9.400;2023-06-22T01:50:45;19.90;63.20
9057;DHT22;4563;54.756;9.400;2023-06-22T01:53:11;19.80;63.10
9057;DHT22;4563;54.756;9.400;2023-06-22T01:55:38;19.80;63.10
9057;DHT22;4563;54.756;9.400;2023-06-22T01:58:05;19.80;63.10
9057;DHT22;4563;54.756;9.400;2023-06-22T02:00:34;19.80;63.10
9057;DHT22;4563;54.756;9.400;2023-06-22T02:03:10;19.80;63.20
9057;DHT22;4563;54.756;9.400;2023-06-22T02:05:42;19.80;63.10
9057;DHT22;4563;54.756;9.400;2023-06-22T02:08:11;19.80;63.20
9057;DHT22;4563;54.756;9.400;2023-06-22T02:10:43;19.80;63.20
9057;DHT22;4563;54.756;9.400;2023-06-22T02:13:11;19.70;63.20
9057;DHT22;4563;54.756;9.400;2023-06-22T02:15:39;19.70;63.10
9057;DHT22;4563;54.756;9.400;2023-06-22T02:18:07;19.70;63.10
9057;DHT22;4563;54.756;9.400;2023-06-22T02:20:38;19.70;63.10
9057;DHT22;4563;54.756;9.400;2023-06-22T02:23:05;19.60;62.90
9057;DHT22;4563;54.756;9.400;2023-06-22T02:25:35;19.60;63.00
9057;DHT22;4563;54.756;9.400;2023-06-22T02:28:05;19.60;62.90
9057;DHT22;4563;54.756;9.400;2023-06-22T02:30:32;19.60;63.00
9057;DHT22;4563;54.756;9.400;2023-06-22T02:33:01;19.60;63.00
9057;DHT22;4563;54.756;9.400;2023-06-22T02:35:29;19.50;62.80
9057;DHT22;4563;54.756;9.400;2023-06-22T02:37:58;19.50;62.90
9057;DHT22;4563;54.756;9.400;2023-06-22T02:40:26;19.50;62.90
9057;DHT22;4563;54.756;9.400;2023-06-22T02:42:53;19.50;63.00
9057;DHT22;4563;54.756;9.400;2023-06-22T02:45:20;19.50;63.00
9057;DHT22;4563;54.756;9.400;2023-06-22T02:47:47;19.40;62.90
9057;DHT22;4563;54.756;9.400;2023-06-22T02:50:14;19.40;63.00
9057;DHT22;4563;54.756;9.400;2023-06-22T02:52:41;19.40;63.10
9057;DHT22;4563;54.756;9.400;2023-06-22T02:55:09;19.30;63.00
9057;DHT22;4563;54.756;9.400;2023-06-22T02:57:36;19.30;63.10
9057;DHT22;4563;54.756;9.400;2023-06-22T03:00:04;19.30;63.10
9057;DHT22;4563;54.756;9.400;2023-06-22T03:02:42;19.30;63.20
9057;DHT22;4563;54.756;9.400;2023-06-22T03:05:09;19.30;63.40
9057;DHT22;4563;54.756;9.400;2023-06-22T03:07:39;19.30;63.30
9057;DHT22;4563;54.756;9.400;2023-06-22T03:10:08;19.30;63.30
9057;DHT22;4563;54.756;9.400;2023-06-22T03:12:36;19.20;63.30
9057;DHT22;4563;54.756;9.400;2023-06-22T03:15:05;19.20;63.30
9057;DHT22;4563;54.756;9.400;2023-06-22T03:17:32;19.20;63.40
9057;DHT22;4563;54.756;9.400;2023-06-22T03:19:58;19.20;63.40
9057;DHT22;4563;54.756;9.400;2023-06-22T03:22:25;19.10;63.40
9057;DHT22;4563;54.756;9.400;2023-06-22T03:24:52;19.20;63.60
9057;DHT22;4563;54.756;9.400;2023-06-22T03:27:20;19.10;63.50
9057;DHT22;4563;54.756;9.400;2023-06-22T03:29:47;19.10;63.60
9057;DHT22;4563;54.756;9.400;2023-06-22T03:32:14;19.10;63.60
9057;DHT22;4563;54.756;9.400;2023-06-22T03:34:41;19.10;63.60
9057;DHT22;4563;54.756;9.400;2023-06-22T03:37:12;19.10;63.60
9057;DHT22;4563;54.756;9.400;2023-06-22T03:39:39;19.10;63.60
9057;DHT22;4563;54.756;9.400;2023-06-22T03:42:06;19.00;63.50
9057;DHT22;4563;54.756;9.400;2023-06-22T03:44:35;19.00;64.30
9057;DHT22;4563;54.756;9.400;2023-06-22T03:47:02;19.00;63.60
9057;DHT22;4563;54.756;9.400;2023-06-22T03:49:28;19.00;63.70
9057;DHT22;4563;54.756;9.400;2023-06-22T03:51:55;19.00;63.70
9057;DHT22;4563;54.756;9.400;2023-06-22T03:54:22;19.00;63.90
9057;DHT22;4563;54.756;9.400;2023-06-22T03:56:49;19.00;63.90
9057;DHT22;4563;54.756;9.400;2023-06-22T03:59:16;19.00;63.90
9057;DHT22;4563;54.756;9.400;2023-06-22T04:01:44;18.90;64.00
9057;DHT22;4563;54.756;9.400;2023-06-22T04:04:12;18.90;64.80
9057;DHT22;4563;54.756;9.400;2023-06-22T04:06:39;18.90;64.20
9057;DHT22;4563;54.756;9.400;2023-06-22T04:09:06;18.90;64.20
9057;DHT22;4563;54.756;9.400;2023-06-22T04:11:33;18.90;64.20
9057;DHT22;4563;54.756;9.400;2023-06-22T04:14:00;18.90;64.20
9057;DHT22;4563;54.756;9.400;2023-06-22T04:16:26;18.90;64.40
9057;DHT22;4563;54.756;9.400;2023-06-22T04:18:55;18.90;64.50
9057;DHT22;4563;54.756;9.400;2023-06-22T04:21:23;18.90;64.60
9057;DHT22;4563;54.756;9.400;2023-06-22T04:23:49;18.90;64.60
9057;DHT22;4563;54.756;9.400;2023-06-22T04:26:16;18.90;64.70
9057;DHT22;4563;54.756;9.400;2023-06-22T04:28:46;18.90;64.80
9057;DHT22;4563;54.756;9.400;2023-06-22T04:31:17;19.00;65.00
9057;DHT22;4563;54.756;9.400;2023-06-22T04:33:44;19.00;65.10
9057;DHT22;4563;54.756;9.400;2023-06-22T04:36:13;19.00;65.30
9057;DHT22;4563;54.756;9.400;2023-06-22T04:38:40;19.00;65.40
9057;DHT22;4563;54.756;9.400;2023-06-22T04:41:07;19.00;65.50
9057;DHT22;4563;54.756;9.400;2023-06-22T04:43:39;19.00;65.60
9057;DHT22;4563;54.756;9.400;2023-06-22T04:46:06;19.10;65.80
9057;DHT22;4563;54.756;9.400;2023-06-22T04:48:33;19.10;65.90
9057;DHT22;4563;54.756;9.400;2023-06-22T04:51:00;19.10;66.10
9057;DHT22;4563;54.756;9.400;2023-06-22T04:53:30;19.20;66.30
9057;DHT22;4563;54.756;9.400;2023-06-22T04:55:58;19.20;66.40
9057;DHT22;4563;54.756;9.400;2023-06-22T04:58:24;19.30;66.40
9057;DHT22;4563;54.756;9.400;2023-06-22T05:00:54;19.30;66.50
9057;DHT22;4563;54.756;9.400;2023-06-22T05:03:24;19.30;66.50
9057;DHT22;4563;54.756;9.400;2023-06-22T05:05:52;19.30;66.60
9057;DHT22;4563;54.756;9.400;2023-06-22T05:08:19;19.40;66.80
9057;DHT22;4563;54.756;9.400;2023-06-22T05:10:47;19.50;66.90
9057;DHT22;4563;54.756;9.400;2023-06-22T05:13:14;19.50;67.10
9057;DHT22;4563;54.756;9.400;2023-06-22T05:15:41;19.50;67.00
9057;DHT22;4563;54.756;9.400;2023-06-22T05:18:08;19.60;67.30
9057;DHT22;4563;54.756;9.400;2023-06-22T05:20:34;19.70;67.70
9057;DHT22;4563;54.756;9.400;2023-06-22T05:23:01;19.70;67.80
9057;DHT22;4563;54.756;9.400;2023-06-22T05:25:28;19.80;68.00
9057;DHT22;4563;54.756;9.400;2023-06-22T05:28:00;19.90;68.20
9057;DHT22;4563;54.756;9.400;2023-06-22T05:30:36;20.00;68.40
9057;DHT22;4563;54.756;9.400;2023-06-22T05:33:02;20.00;68.30
9057;DHT22;4563;54.756;9.400;2023-06-22T05:35:29;20.10;68.50
9057;DHT22;4563;54.756;9.400;2023-06-22T05:37:56;20.20;68.50
9057;DHT22;4563;54.756;9.400;2023-06-22T05:40:23;20.30;68.60
9057;DHT22;4563;54.756;9.400;2023-06-22T05:42:50;20.40;68.50
9057;DHT22;4563;54.756;9.400;2023-06-22T05:45:18;20.50;68.50
9057;DHT22;4563;54.756;9.400;2023-06-22T05:47:44;20.60;68.70
9057;DHT22;4563;54.756;9.400;2023-06-22T05:50:11;20.70;68.60
9057;DHT22;4563;54.756;9.400;2023-06-22T05:52:38;20.80;68.50
9057;DHT22;4563;54.756;9.400;2023-06-22T05:55:15;20.90;68.40
9057;DHT22;4563;54.756;9.400;2023-06-22T05:57:55;21.00;68.20
9057;DHT22;4563;54.756;9.400;2023-06-22T06:00:24;21.20;68.20
9057;DHT22;4563;54.756;9.400;2023-06-22T06:02:51;21.30;68.00
9057;DHT22;4563;54.756;9.400;2023-06-22T06:05:18;21.40;67.90
9057;DHT22;4563;54.756;9.400;2023-06-22T06:07:45;21.50;67.80
9057;DHT22;4563;54.756;9.400;2023-06-22T06:10:12;21.70;67.90
9057;DHT22;4563;54.756;9.400;2023-06-22T06:12:39;21.80;67.70
9057;DHT22;4563;54.756;9.400;2023-06-22T06:15:07;21.90;67.40
9057;DHT22;4563;54.756;9.400;2023-06-22T06:17:45;22.00;67.10
9057;DHT22;4563;54.756;9.400;2023-06-22T06:20:12;22.20;66.10
9057;DHT22;4563;54.756;9.400;2023-06-22T06:22:39;22.40;66.70
9057;DHT22;4563;54.756;9.400;2023-06-22T06:25:06;22.50;66.30
9057;DHT22;4563;54.756;9.400;2023-06-22T06:27:33;22.70;66.10
9057;DHT22;4563;54.756;9.400;2023-06-22T06:30:00;22.80;65.70
9057;DHT22;4563;54.756;9.400;2023-06-22T06:32:27;22.90;65.50
9057;DHT22;4563;54.756;9.400;2023-06-22T06:34:55;23.10;65.40
9057;DHT22;4563;54.756;9.400;2023-06-22T06:37:25;23.20;64.80
9057;DHT22;4563;54.756;9.400;2023-06-22T06:39:51;23.30;64.50
9057;DHT22;4563;54.756;9.400;2023-06-22T06:42:18;23.50;64.30
9057;DHT22;4563;54.756;9.400;2023-06-22T06:44:48;23.60;64.10
9057;DHT22;4563;54.756;9.400;2023-06-22T06:47:15;23.70;63.80
9057;DHT22;4563;54.756;9.400;2023-06-22T06:49:42;23.80;63.90
9057;DHT22;4563;54.756;9.400;2023-06-22T06:52:10;23.90;63.50
9057;DHT22;4563;54.756;9.400;2023-06-22T06:54:37;24.00;63.30
9057;DHT22;4563;54.756;9.400;2023-06-22T06:57:04;24.10;63.00
9057;DHT22;4563;54.756;9.400;2023-06-22T06:59:31;24.10;62.60
9057;DHT22;4563;54.756;9.400;2023-06-22T07:01:58;24.20;62.20
9057;DHT22;4563;54.756;9.400;2023-06-22T07:04:25;24.20;61.80
9057;DHT22;4563;54.756;9.400;2023-06-22T07:06:52;24.30;61.60
9057;DHT22;4563;54.756;9.400;2023-06-22T07:09:20;24.40;61.50
9057;DHT22;4563;54.756;9.400;2023-06-22T07:11:47;24.50;61.50
9057;DHT22;4563;54.756;9.400;2023-06-22T07:14:14;24.50;61.20
9057;DHT22;4563;54.756;9.400;2023-06-22T07:16:41;24.60;61.20
9057;DHT22;4563;54.756;9.400;2023-06-22T07:19:16;24.60;61.80
9057;DHT22;4563;54.756;9.400;2023-06-22T07:21:50;24.60;61.00
9057;DHT22;4563;54.756;9.400;2023-06-22T07:24:17;24.80;61.00
9057;DHT22;4563;54.756;9.400;2023-06-22T07:26:46;24.80;60.50
9057;DHT22;4563;54.756;9.400;2023-06-22T07:29:15;24.90;60.40
9057;DHT22;4563;54.756;9.400;2023-06-22T07:31:45;24.90;60.30
9057;DHT22;4563;54.756;9.400;2023-06-22T07:34:12;25.00;60.20
9057;DHT22;4563;54.756;9.400;2023-06-22T07:36:39;25.10;59.90
9057;DHT22;4563;54.756;9.400;2023-06-22T07:39:06;25.20;59.80
9057;DHT22;4563;54.756;9.400;2023-06-22T07:41:33;25.30;59.50
9057;DHT22;4563;54.756;9.400;2023-06-22T07:44:02;25.40;59.50
9057;DHT22;4563;54.756;9.400;2023-06-22T07:46:29;25.50;59.10
9057;DHT22;4563;54.756;9.400;2023-06-22T07:48:56;25.70;59.00
9057;DHT22;4563;54.756;9.400;2023-06-22T07:51:23;25.80;58.90
9057;DHT22;4563;54.756;9.400;2023-06-22T07:53:50;26.00;59.00
9057;DHT22;4563;54.756;9.400;2023-06-22T07:56:17;26.10;58.60
9057;DHT22;4563;54.756;9.400;2023-06-22T07:58:45;26.30;58.40
9057;DHT22;4563;54.756;9.400;2023-06-22T08:01:13;26.50;58.30
9057;DHT22;4563;54.756;9.400;2023-06-22T08:03:40;26.70;58.40
9057;DHT22;4563;54.756;9.400;2023-06-22T08:06:07;26.90;58.10
9057;DHT22;4563;54.756;9.400;2023-06-22T08:08:35;27.10;57.90
9057;DHT22;4563;54.756;9.400;2023-06-22T08:11:02;27.30;57.80
9057;DHT22;4563;54.756;9.400;2023-06-22T08:13:29;27.40;57.50
9057;DHT22;4563;54.756;9.400;2023-06-22T08:15:56;27.60;57.00
9057;DHT22;4563;54.756;9.400;2023-06-22T08:18:24;27.80;56.60
9057;DHT22;4563;54.756;9.400;2023-06-22T08:20:51;28.00;56.20
9057;DHT22;4563;54.756;9.400;2023-06-22T08:23:20;28.10;55.80
9057;DHT22;4563;54.756;9.400;2023-06-22T08:25:47;28.30;55.50
9057;DHT22;4563;54.756;9.400;2023-06-22T08:28:15;28.50;55.40
9057;DHT22;4563;54.756;9.400;2023-06-22T08:30:42;28.70;55.00
9057;DHT22;4563;54.756;9.400;2023-06-22T08:33:09;28.90;54.70
9057;DHT22;4563;54.756;9.400;2023-06-22T08:35:37;29.00;54.20
9057;DHT22;4563;54.756;9.400;2023-06-22T08:38:04;29.20;54.00
9057;DHT22;4563;54.756;9.400;2023-06-22T08:40:31;29.40;53.60
9057;DHT22;4563;54.756;9.400;2023-06-22T08:42:58;29.50;53.30
9057;DHT22;4563;54.756;9.400;2023-06-22T08:45:25;29.70;53.20
9057;DHT22;4563;54.756;9.400;2023-06-22T08:47:51;29.80;53.00
9057;DHT22;4563;54.756;9.400;2023-06-22T08:50:18;30.10;52.70
9057;DHT22;4563;54.756;9.400;2023-06-22T08:52:46;30.20;52.50
9057;DHT22;4563;54.756;9.400;2023-06-22T08:55:13;30.40;52.50
9057;DHT22;4563;54.756;9.400;2023-06-22T08:57:40;30.60;52.80
9057;DHT22;4563;54.756;9.400;2023-06-22T09:00:09;30.70;51.90
9057;DHT22;4563;54.756;9.400;2023-06-22T09:02:41;30.90;51.40
9057;DHT22;4563;54.756;9.400;2023-06-22T09:05:09;31.10;51.30
9057;DHT22;4563;54.756;9.400;2023-06-22T09:07:36;31.20;50.80
9057;DHT22;4563;54.756;9.400;2023-06-22T09:10:05;31.40;50.50
9057;DHT22;4563;54.756;9.400;2023-06-22T09:12:33;31.60;50.80
9057;DHT22;4563;54.756;9.400;2023-06-22T09:15:00;31.80;50.00
9057;DHT22;4563;54.756;9.400;2023-06-22T09:17:30;32.00;49.90
9057;DHT22;4563;54.756;9.400;2023-06-22T09:19:56;32.10;49.60
9057;DHT22;4563;54.756;9.400;2023-06-22T09:22:24;32.30;49.30
9057;DHT22;4563;54.756;9.400;2023-06-22T09:24:54;32.50;49.20
9057;DHT22;4563;54.756;9.400;2023-06-22T09:27:23;32.60;49.30
9057;DHT22;4563;54.756;9.400;2023-06-22T09:29:49;32.80;48.90
9057;DHT22;4563;54.756;9.400;2023-06-22T09:32:16;33.00;48.30
9057;DHT22;4563;54.756;9.400;2023-06-22T09:34:43;33.00;48.20
9057;DHT22;4563;54.756;9.400;2023-06-22T09:37:10;33.20;48.00
9057;DHT22;4563;54.756;9.400;2023-06-22T09:39:39;33.30;47.60
9057;DHT22;4563;54.756;9.400;2023-06-22T09:42:07;33.50;47.50
9057;DHT22;4563;54.756;9.400;2023-06-22T09:44:38;33.60;47.00
9057;DHT22;4563;54.756;9.400;2023-06-22T09:47:06;33.70;47.10
9057;DHT22;4563;54.756;9.400;2023-06-22T09:49:33;33.90;46.80
9057;DHT22;4563;54.756;9.400;2023-06-22T09:52:00;34.10;46.70
9057;DHT22;4563;54.756;9.400;2023-06-22T09:54:26;34.20;46.00
9057;DHT22;4563;54.756;9.400;2023-06-22T09:56:53;34.40;45.80
9057;DHT22;4563;54.756;9.400;2023-06-22T09:59:20;34.50;45.80
9057;DHT22;4563;54.756;9.400;2023-06-22T10:01:48;34.70;45.50
9057;DHT22;4563;54.756;9.400;2023-06-22T10:04:15;34.90;45.10
9057;DHT22;4563;54.756;9.400;2023-06-22T10:06:42;35.00;44.80
9057;DHT22;4563;54.756;9.400;2023-06-22T10:09:08;35.20;44.60
9057;DHT22;4563;54.756;9.400;2023-06-22T10:11:35;35.40;44.00
9057;DHT22;4563;54.756;9.400;2023-06-22T10:14:02;35.50;44.00
9057;DHT22;4563;54.756;9.400;2023-06-22T10:16:33;35.60;43.60
9057;DHT22;4563;54.756;9.400;2023-06-22T10:19:02;35.80;45.30
9057;DHT22;4563;54.756;9.400;2023-06-22T10:21:29;36.00;43.50
9057;DHT22;4563;54.756;9.400;2023-06-22T10:23:56;36.10;43.00
9057;DHT22;4563;54.756;9.400;2023-06-22T10:26:23;36.20;42.80
9057;DHT22;4563;54.756;9.400;2023-06-22T10:28:51;36.40;42.50
9057;DHT22;4563;54.756;9.400;2023-06-22T10:31:18;36.60;42.70
9057;DHT22;4563;54.756;9.400;2023-06-22T10:33:45;36.70;42.00
9057;DHT22;4563;54.756;9.400;2023-06-22T10:36:13;36.90;41.80
9057;DHT22;4563;54.756;9.400;2023-06-22T10:38:40;37.00;41.50
9057;DHT22;4563;54.756;9.400;2023-06-22T10:41:07;37.10;41.20
9057;DHT22;4563;54.756;9.400;2023-06-22T10:43:33;37.20;40.60
9057;DHT22;4563;54.756;9.400;2023-06-22T10:46:00;37.30;40.70
9057;DHT22;4563;54.756;9.400;2023-06-22T10:48:27;37.40;40.50
9057;DHT22;4563;54.756;9.400;2023-06-22T10:50:54;37.50;40.40
9057;DHT22;4563;54.756;9.400;2023-06-22T10:53:22;37.60;39.80
9057;DHT22;4563;54.756;9.400;2023-06-22T10:55:49;37.70;39.80
9057;DHT22;4563;54.756;9.400;2023-06-22T10:58:18;37.90;39.50
9057;DHT22;4563;54.756;9.400;2023-06-22T11:00:46;37.90;39.50
9057;DHT22;4563;54.756;9.400;2023-06-22T11:03:13;38.00;39.40
9057;DHT22;4563;54.756;9.400;2023-06-22T11:05:40;38.00;38.90
9057;DHT22;4563;54.756;9.400;2023-06-22T11:08:07;38.00;38.60
9057;DHT22;4563;54.756;9.400;2023-06-22T11:10:35;38.00;38.40
9057;DHT22;4563;54.756;9.400;2023-06-22T11:13:02;38.10;38.10
9057;DHT22;4563;54.756;9.400;2023-06-22T11:15:29;38.10;37.80
9057;DHT22;4563;54.756;9.400;2023-06-22T11:17:59;38.20;37.80
9057;DHT22;4563;54.756;9.400;2023-06-22T11:20:26;38.20;37.70
9057;DHT22;4563;54.756;9.400;2023-06-22T11:22:52;38.20;37.40
9057;DHT22;4563;54.756;9.400;2023-06-22T11:25:19;38.20;37.10
9057;DHT22;4563;54.756;9.400;2023-06-22T11:27:49;38.20;37.40
9057;DHT22;4563;54.756;9.400;2023-06-22T11:30:16;38.20;37.30
9057;DHT22;4563;54.756;9.400;2023-06-22T11:32:44;38.20;37.00
9057;DHT22;4563;54.756;9.400;2023-06-22T11:35:11;38.10;37.00
9057;DHT22;4563;54.756;9.400;2023-06-22T11:37:39;38.00;36.70
9057;DHT22;4563;54.756;9.400;2023-06-22T11:40:06;38.00;36.70
9057;DHT22;4563;54.756;9.400;2023-06-22T11:42:34;37.90;36.70
9057;DHT22;4563;54.756;9.400;2023-06-22T11:45:05;37.80;36.70
9057;DHT22;4563;54.756;9.400;2023-06-22T11:47:32;37.70;37.50
9057;DHT22;4563;54.756;9.400;2023-06-22T11:49:59;37.70;36.70
9057;DHT22;4563;54.756;9.400;2023-06-22T11:52:25;37.60;36.70
9057;DHT22;4563;54.756;9.400;2023-06-22T11:54:52;37.50;36.90
9057;DHT22;4563;54.756;9.400;2023-06-22T11:57:19;37.50;37.00
9057;DHT22;4563;54.756;9.400;2023-06-22T11:59:46;37.40;37.00
9057;DHT22;4563;54.756;9.400;2023-06-22T12:02:14;37.30;36.80
9057;DHT22;4563;54.756;9.400;2023-06-22T12:04:41;37.20;36.60
9057;DHT22;4563;54.756;9.400;2023-06-22T12:07:08;37.10;36.70
9057;DHT22;4563;54.756;9.400;2023-06-22T12:09:34;37.10;36.50
9057;DHT22;4563;54.756;9.400;2023-06-22T12:12:01;36.90;36.40
9057;DHT22;4563;54.756;9.400;2023-06-22T12:14:28;36.80;36.60
9057;DHT22;4563;54.756;9.400;2023-06-22T12:16:55;36.70;36.70
9057;DHT22;4563;54.756;9.400;2023-06-22T12:19:23;36.60;36.90
9057;DHT22;4563;54.756;9.400;2023-06-22T12:21:50;36.50;36.90
9057;DHT22;4563;54.756;9.400;2023-06-22T12:24:17;36.50;37.10
9057;DHT22;4563;54.756;9.400;2023-06-22T12:26:44;36.40;36.90
9057;DHT22;4563;54.756;9.400;2023-06-22T12:29:11;36.20;36.90
9057;DHT22;4563;54.756;9.400;2023-06-22T12:31:37;36.20;37.10
9057;DHT22;4563;54.756;9.400;2023-06-22T12:34:05;36.10;37.40
9057;DHT22;4563;54.756;9.400;2023-06-22T12:36:33;36.10;37.50
9057;DHT22;4563;54.756;9.400;2023-06-22T12:39:00;36.00;37.70
9057;DHT22;4563;54.756;9.400;2023-06-22T12:41:26;35.90;38.00
9057;DHT22;4563;54.756;9.400;2023-06-22T12:43:53;35.80;38.10
9057;DHT22;4563;54.756;9.400;2023-06-22T12:46:20;35.70;38.20
9057;DHT22;4563;54.756;9.400;2023-06-22T12:48:47;35.60;38.30
9057;DHT22;4563;54.756;9.400;2023-06-22T12:51:20;35.60;38.40
9057;DHT22;4563;54.756;9.400;2023-06-22T12:53:49;35.40;39.70
9057;DHT22;4563;54.756;9.400;2023-06-22T12:56:15;35.40;38.30
9057;DHT22;4563;54.756;9.400;2023-06-22T12:58:42;35.30;38.50
9057;DHT22;4563;54.756;9.400;2023-06-22T13:01:09;35.20;38.50
9057;DHT22;4563;54.756;9.400;2023-06-22T13:03:36;35.10;38.70
9057;DHT22;4563;54.756;9.400;2023-06-22T13:06:02;35.00;38.80
9057;DHT22;4563;54.756;9.400;2023-06-22T13:08:30;34.90;38.80
9057;DHT22;4563;54.756;9.400;2023-06-22T13:10:58;34.80;38.90
9057;DHT22;4563;54.756;9.400;2023-06-22T13:13:25;34.70;38.90
9057;DHT22;4563;54.756;9.400;2023-06-22T13:15:52;34.60;39.10
9057;DHT22;4563;54.756;9.400;2023-06-22T13:18:19;34.50;39.20
9057;DHT22;4563;54.756;9.400;2023-06-22T13:20:46;34.40;39.10
9057;DHT22;4563;54.756;9.400;2023-06-22T13:23:13;34.30;39.30
9057;DHT22;4563;54.756;9.400;2023-06-22T13:25:40;34.20;39.40
9057;DHT22;4563;54.756;9.400;2023-06-22T13:28:08;34.10;39.20
9057;DHT22;4563;54.756;9.400;2023-06-22T13:30:36;34.10;39.60
9057;DHT22;4563;54.756;9.400;2023-06-22T13:33:03;33.90;39.60
9057;DHT22;4563;54.756;9.400;2023-06-22T13:35:30;33.80;39.40
9057;DHT22;4563;54.756;9.400;2023-06-22T13:37:56;33.70;39.50
9057;DHT22;4563;54.756;9.400;2023-06-22T13:40:23;33.60;39.60
9057;DHT22;4563;54.756;9.400;2023-06-22T13:42:50;33.50;39.60
9057;DHT22;4563;54.756;9.400;2023-06-22T13:45:18;33.40;40.30
9057;DHT22;4563;54.756;9.400;2023-06-22T13:47:45;33.20;39.80
9057;DHT22;4563;54.756;9.400;2023-06-22T13:50:13;33.10;39.90
9057;DHT22;4563;54.756;9.400;2023-06-22T13:52:40;33.10;40.40
9057;DHT22;4563;54.756;9.400;2023-06-22T13:55:07;32.90;40.50
9057;DHT22;4563;54.756;9.400;2023-06-22T13:57:35;32.80;40.40
9057;DHT22;4563;54.756;9.400;2023-06-22T14:00:04;32.80;40.60
9057;DHT22;4563;54.756;9.400;2023-06-22T14:02:33;32.70;40.50
9057;DHT22;4563;54.756;9.400;2023-06-22T14:04:59;32.60;40.60
9057;DHT22;4563;54.756;9.400;2023-06-22T14:07:27;32.50;40.80
9057;DHT22;4563;54.756;9.400;2023-06-22T14:09:54;32.40;40.80
9057;DHT22;4563;54.756;9.400;2023-06-22T14:12:21;32.40;41.00
9057;DHT22;4563;54.756;9.400;2023-06-22T14:14:48;32.30;40.80
9057;DHT22;4563;54.756;9.400;2023-06-22T14:17:15;32.20;40.90
9057;DHT22;4563;54.756;9.400;2023-06-22T14:19:43;32.20;41.10
9057;DHT22;4563;54.756;9.400;2023-06-22T14:22:12;32.10;41.20
9057;DHT22;4563;54.756;9.400;2023-06-22T14:24:39;32.00;41.20
9057;DHT22;4563;54.756;9.400;2023-06-22T14:27:05;32.00;41.20
9057;DHT22;4563;54.756;9.400;2023-06-22T14:29:34;31.90;41.50
9057;DHT22;4563;54.756;9.400;2023-06-22T14:32:01;31.80;41.50
9057;DHT22;4563;54.756;9.400;2023-06-22T14:34:27;31.80;41.80
9057;DHT22;4563;54.756;9.400;2023-06-22T14:36:55;31.70;41.80
9057;DHT22;4563;54.756;9.400;2023-06-22T14:39:22;31.60;41.90
9057;DHT22;4563;54.756;9.400;2023-06-22T14:41:52;31.60;42.20
9057;DHT22;4563;54.756;9.400;2023-06-22T14:44:19;31.50;42.30
9057;DHT22;4563;54.756;9.400;2023-06-22T14:46:49;31.40;42.60
9057;DHT22;4563;54.756;9.400;2023-06-22T14:49:16;31.30;42.90
9057;DHT22;4563;54.756;9.400;2023-06-22T14:51:42;31.30;43.00
9057;DHT22;4563;54.756;9.400;2023-06-22T14:54:10;31.30;43.00
9057;DHT22;4563;54.756;9.400;2023-06-22T14:56:37;31.20;42.90
9057;DHT22;4563;54.756;9.400;2023-06-22T14:59:04;31.10;43.00
9057;DHT22;4563;54.756;9.400;2023-06-22T15:01:31;31.10;43.10
9057;DHT22;4563;54.756;9.400;2023-06-22T15:03:58;31.00;43.20
9057;DHT22;4563;54.756;9.400;2023-06-22T15:06:24;30.90;43.10
9057;DHT22;4563;54.756;9.400;2023-06-22T15:08:52;30.90;43.20
9057;DHT22;4563;54.756;9.400;2023-06-22T15:11:21;30.80;43.20
9057;DHT22;4563;54.756;9.400;2023-06-22T15:13:47;30.70;43.20
9057;DHT22;4563;54.756;9.400;2023-06-22T15:16:14;30.70;43.50
9057;DHT22;4563;54.756;9.400;2023-06-22T15:18:41;30.70;43.50
9057;DHT22;4563;54.756;9.400;2023-06-22T15:21:09;30.70;43.50
9057;DHT22;4563;54.756;9.400;2023-06-22T15:23:36;30.50;43.40
9057;DHT22;4563;54.756;9.400;2023-06-22T15:26:03;30.50;43.80
9057;DHT22;4563;54.756;9.400;2023-06-22T15:28:31;30.50;43.90
9057;DHT22;4563;54.756;9.400;2023-06-22T15:31:00;30.40;44.10
9057;DHT22;4563;54.756;9.400;2023-06-22T15:33:27;30.40;44.30
9057;DHT22;4563;54.756;9.400;2023-06-22T15:35:54;30.30;44.40
9057;DHT22;4563;54.756;9.400;2023-06-22T15:38:21;30.30;44.50
9057;DHT22;4563;54.756;9.400;2023-06-22T15:40:48;30.20;44.60
9057;DHT22;4563;54.756;9.400;2023-06-22T15:43:14;30.20;44.80
9057;DHT22;4563;54.756;9.400;2023-06-22T15:45:44;30.10;44.80
9057;DHT22;4563;54.756;9.400;2023-06-22T15:48:13;30.10;44.90
9057;DHT22;4563;54.756;9.400;2023-06-22T15:50:40;30.00;45.00
9057;DHT22;4563;54.756;9.400;2023-06-22T15:53:06;29.90;45.10
9057;DHT22;4563;54.756;9.400;2023-06-22T15:55:33;29.90;45.20
9057;DHT22;4563;54.756;9.400;2023-06-22T15:58:00;29.90;45.30
9057;DHT22;4563;54.756;9.400;2023-06-22T16:00:27;29.80;45.40
9057;DHT22;4563;54.756;9.400;2023-06-22T16:02:55;29.80;45.50
9057;DHT22;4563;54.756;9.400;2023-06-22T16:05:22;29.70;45.60